createdAt,value
2023-03-29T00:01:36.164Z,-0.55
2023-03-29T00:04:39.059Z,-0.68
2023-03-29T00:07:41.836Z,-0.60
2023-03-29T00:10:43.801Z,-0.38
2023-03-29T00:13:46.443Z,-0.30
2023-03-29T00:16:48.905Z,-0.31
2023-03-29T00:19:51.026Z,-0.45
2023-03-29T00:22:52.933Z,-0.53
2023-03-29T00:25:55.775Z,-0.42
2023-03-29T00:28:57.637Z,-0.48
2023-03-29T00:32:00.288Z,-0.30
2023-03-29T00:35:02.395Z,-0.46
2023-03-29T00:38:06.218Z,-0.38
2023-03-29T00:41:09.197Z,-0.46
2023-03-29T00:44:55.400Z,-0.45
2023-03-29T00:48:03.012Z,-0.34
2023-03-29T00:51:10.051Z,-0.45
2023-03-29T00:54:18.748Z,-0.58
2023-03-29T00:57:22.565Z,-0.42
2023-03-29T01:00:31.820Z,-0.44
2023-03-29T01:03:46.382Z,-0.56
2023-03-29T01:07:06.412Z,-0.42
2023-03-29T01:10:16.229Z,-0.45
2023-03-29T01:13:27.295Z,-0.47
2023-03-29T01:16:33.109Z,-0.38
2023-03-29T01:19:42.310Z,-0.39
2023-03-29T01:23:03.365Z,-0.37
2023-03-29T01:26:23.020Z,-0.44
2023-03-29T01:29:29.266Z,-0.57
2023-03-29T01:32:42.228Z,-0.69
2023-03-29T01:35:51.174Z,-0.69
2023-03-29T01:38:57.081Z,-0.77
2023-03-29T01:42:10.017Z,-0.75
2023-03-29T01:45:27.015Z,-0.73
2023-03-29T01:48:36.470Z,-0.77
2023-03-29T01:51:48.325Z,-0.81
2023-03-29T01:55:08.872Z,-0.85
2023-03-29T01:58:13.454Z,-0.91
2023-03-29T02:01:21.383Z,-0.89
2023-03-29T02:04:30.559Z,-0.97
2023-03-29T02:07:37.348Z,-0.97
2023-03-29T02:10:39.866Z,-0.85
2023-03-29T02:13:42.125Z,-0.97
2023-03-29T02:16:46.349Z,-1.05
2023-03-29T02:19:51.907Z,-0.98
2023-03-29T02:23:08.910Z,-1.07
2023-03-29T02:26:11.576Z,-1.13
2023-03-29T02:29:14.134Z,-1.10
2023-03-29T02:32:21.137Z,-1.09
2023-03-29T02:35:53.342Z,-1.05
2023-03-29T02:38:58.035Z,-1.03
2023-03-29T02:42:03.049Z,-1.33
2023-03-29T02:45:06.312Z,-1.40
2023-03-29T02:48:12.551Z,-1.35
2023-03-29T02:51:22.093Z,-1.52
2023-03-29T02:54:29.969Z,-1.79
2023-03-29T02:57:32.486Z,-1.60
2023-03-29T03:00:38.344Z,-1.57
2023-03-29T03:03:41.395Z,-1.76
2023-03-29T03:06:43.463Z,-1.66
2023-03-29T03:09:47.711Z,-1.64
2023-03-29T03:12:49.978Z,-1.61
2023-03-29T03:15:51.985Z,-1.53
2023-03-29T03:18:55.763Z,-1.45
2023-03-29T03:21:57.842Z,-1.53
2023-03-29T03:24:59.753Z,-1.54
2023-03-29T03:28:02.545Z,-1.59
2023-03-29T03:31:05.426Z,-1.60
2023-03-29T03:34:27.694Z,-1.56
2023-03-29T03:37:34.947Z,-1.57
2023-03-29T03:40:37.364Z,-1.48
2023-03-29T03:43:42.438Z,-1.37
2023-03-29T03:46:44.392Z,-1.36
2023-03-29T03:49:46.635Z,-1.44
2023-03-29T03:52:50.196Z,-1.54
2023-03-29T03:55:55.945Z,-1.51
2023-03-29T03:59:01.557Z,-1.70
2023-03-29T04:02:08.125Z,-1.70
2023-03-29T04:05:12.602Z,-1.76
2023-03-29T04:08:15.137Z,-1.76
2023-03-29T04:11:36.957Z,-1.73
2023-03-29T04:14:40.427Z,-1.73
2023-03-29T04:17:46.089Z,-1.68
2023-03-29T04:20:59.636Z,-1.69
2023-03-29T04:24:03.739Z,-1.64
2023-03-29T04:27:08.815Z,-1.72
2023-03-29T04:30:11.757Z,-1.64
2023-03-29T04:33:35.158Z,-1.48
2023-03-29T04:36:36.990Z,-1.36
2023-03-29T04:39:42.439Z,-1.29
2023-03-29T04:42:45.938Z,-1.05
2023-03-29T04:45:48.046Z,-0.88
2023-03-29T04:49:04.307Z,-1.13
2023-03-29T04:52:10.457Z,-0.86
2023-03-29T04:55:13.159Z,-0.71
2023-03-29T04:58:31.632Z,-1.14
2023-03-29T05:01:35.163Z,-1.23
2023-03-29T05:04:37.237Z,-0.76
2023-03-29T05:07:46.530Z,-0.56
2023-03-29T05:10:50.859Z,-0.74
2023-03-29T05:13:52.961Z,-0.62
2023-03-29T05:16:56.259Z,-0.30
2023-03-29T05:19:58.370Z,-0.52
2023-03-29T05:23:01.492Z,-0.67
2023-03-29T05:26:23.254Z,-0.09
2023-03-29T05:29:28.434Z,0.14
2023-03-29T05:32:45.162Z,0.31
2023-03-29T05:35:58.164Z,0.40
2023-03-29T05:39:00.426Z,0.56
2023-03-29T05:42:04.599Z,0.62
2023-03-29T05:45:11.608Z,0.68
2023-03-29T05:48:15.067Z,0.82
2023-03-29T05:51:19.028Z,0.37
2023-03-29T05:54:21.089Z,0.77
2023-03-29T05:57:23.113Z,0.09
2023-03-29T06:00:25.805Z,0.71
2023-03-29T06:03:39.488Z,1.02
2023-03-29T06:06:42.078Z,1.22
2023-03-29T06:09:44.709Z,1.02
2023-03-29T06:12:47.731Z,1.71
2023-03-29T06:15:50.077Z,1.97
2023-03-29T06:18:54.232Z,1.79
2023-03-29T06:21:56.660Z,1.23
2023-03-29T06:25:02.566Z,1.34
2023-03-29T06:28:07.733Z,1.26
2023-03-29T06:31:11.041Z,1.55
2023-03-29T06:34:16.493Z,1.04
2023-03-29T06:37:35.570Z,1.70
2023-03-29T06:40:52.817Z,1.82
2023-03-29T06:43:58.358Z,1.98
2023-03-29T06:47:08.616Z,2.35
2023-03-29T06:50:11.757Z,2.29
2023-03-29T06:53:28.221Z,2.27
2023-03-29T06:56:35.202Z,2.34
2023-03-29T06:59:44.383Z,2.67
2023-03-29T07:02:54.955Z,2.73
2023-03-29T07:06:04.258Z,2.62
2023-03-29T07:09:09.014Z,3.15
2023-03-29T07:12:29.382Z,3.22
2023-03-29T07:15:36.114Z,3.20
2023-03-29T07:18:56.051Z,3.60
2023-03-29T07:42:58.964Z,3.58
2023-03-29T07:46:05.922Z,3.60
2023-03-29T07:49:10.433Z,3.49
2023-03-29T07:52:12.998Z,3.72
2023-03-29T07:55:18.806Z,3.64
2023-03-29T07:58:40.390Z,3.64
2023-03-29T08:01:42.961Z,4.09
2023-03-29T08:04:54.784Z,3.81
2023-03-29T08:08:17.232Z,3.96
2023-03-29T08:11:26.238Z,4.19
2023-03-29T08:14:33.449Z,4.32
2023-03-29T08:17:44.944Z,3.93
2023-03-29T08:20:47.432Z,4.31
2023-03-29T08:23:49.694Z,4.16
2023-03-29T08:26:59.102Z,4.31
2023-03-29T08:30:01.465Z,4.51
2023-03-29T08:33:03.917Z,4.51
2023-03-29T08:36:06.184Z,4.25
2023-03-29T08:39:12.325Z,3.82
2023-03-29T08:42:39.819Z,4.57
2023-03-29T08:45:44.849Z,5.09
2023-03-29T08:48:57.717Z,4.99
2023-03-29T08:52:05.282Z,5.34
2023-03-29T08:55:17.711Z,4.93
2023-03-29T08:58:40.562Z,4.37
2023-03-29T09:01:43.625Z,5.25
2023-03-29T09:04:48.495Z,5.24
2023-03-29T09:08:17.434Z,5.66
2023-03-29T09:11:44.833Z,5.89
2023-03-29T09:14:50.774Z,5.34
2023-03-29T09:18:14.085Z,5.58
2023-03-29T09:21:35.598Z,5.71
2023-03-29T09:25:05.973Z,4.91
2023-03-29T09:28:55.611Z,5.49
2023-03-29T09:31:59.186Z,5.43
2023-03-29T09:35:18.737Z,5.48
2023-03-29T09:38:23.000Z,5.37
2023-03-29T09:41:43.567Z,5.53
2023-03-29T09:44:53.584Z,5.46
2023-03-29T09:48:06.438Z,5.58
2023-03-29T09:51:11.445Z,5.59
2023-03-29T09:54:14.928Z,5.65
2023-03-29T09:57:46.225Z,5.49
2023-03-29T10:00:51.083Z,5.39
2023-03-29T10:03:54.080Z,5.31
2023-03-29T10:06:59.976Z,5.36
2023-03-29T10:10:02.029Z,5.68
2023-03-29T10:13:10.979Z,5.95
2023-03-29T10:16:25.875Z,5.21
2023-03-29T10:19:31.015Z,5.95
2023-03-29T10:22:37.640Z,6.32
2023-03-29T10:25:42.560Z,6.26
2023-03-29T10:28:45.423Z,6.92
2023-03-29T10:31:48.020Z,6.87
2023-03-29T10:34:52.056Z,6.96
2023-03-29T10:38:00.189Z,7.05
2023-03-29T10:41:12.920Z,6.65
2023-03-29T10:44:32.888Z,6.89
2023-03-29T10:47:35.442Z,7.04
2023-03-29T10:50:38.256Z,6.54
2023-03-29T10:53:41.126Z,6.84
2023-03-29T10:56:58.012Z,6.88
2023-03-29T11:00:23.671Z,6.09
2023-03-29T11:03:31.482Z,6.25
2023-03-29T11:06:57.352Z,6.75
2023-03-29T11:10:25.990Z,7.44
2023-03-29T11:13:37.452Z,7.83
2023-03-29T11:16:42.749Z,7.57
2023-03-29T11:20:05.205Z,7.58
2023-03-29T11:23:27.978Z,7.21
2023-03-29T11:26:33.085Z,6.84
2023-03-29T11:30:03.790Z,7.68
2023-03-29T11:33:16.650Z,7.71
2023-03-29T11:36:32.347Z,7.48
2023-03-29T11:39:48.038Z,8.16
2023-03-29T11:42:54.363Z,8.29
2023-03-29T11:46:02.501Z,8.21
2023-03-29T11:49:16.680Z,8.33
2023-03-29T11:52:25.678Z,8.39
2023-03-29T11:55:33.059Z,8.35
2023-03-29T11:58:40.952Z,8.12
2023-03-29T12:01:57.513Z,7.36
2023-03-29T12:05:07.530Z,7.86
2023-03-29T12:08:16.855Z,8.14
2023-03-29T12:11:19.044Z,8.39
2023-03-29T12:14:28.333Z,8.52
2023-03-29T12:17:39.399Z,7.61
2023-03-29T12:20:42.195Z,8.33
2023-03-29T12:23:48.099Z,8.52
2023-03-29T12:27:19.885Z,8.52
2023-03-29T12:30:27.816Z,8.34
2023-03-29T12:33:53.851Z,8.31
2023-03-29T12:37:38.771Z,8.04
2023-03-29T12:41:02.117Z,8.38
2023-03-29T12:44:28.054Z,8.19
2023-03-29T12:47:51.486Z,7.87
2023-03-29T12:51:01.792Z,7.53
2023-03-29T12:54:10.294Z,7.79
2023-03-29T12:57:25.624Z,7.90
2023-03-29T13:00:42.249Z,8.10
2023-03-29T13:03:50.419Z,8.30
2023-03-29T13:07:02.798Z,8.28
2023-03-29T13:10:31.452Z,8.35
2023-03-29T13:13:37.235Z,8.23
2023-03-29T13:16:41.670Z,8.46
2023-03-29T13:19:49.402Z,8.30
2023-03-29T13:23:02.375Z,8.36
2023-03-29T13:26:28.964Z,8.45
2023-03-29T13:29:55.876Z,8.94
2023-03-29T13:33:39.652Z,9.18
2023-03-29T13:36:58.607Z,9.26
2023-03-29T13:40:00.717Z,9.38
2023-03-29T13:43:19.162Z,9.36
2023-03-29T13:46:36.600Z,8.76
2023-03-29T13:49:42.429Z,9.23
2023-03-29T13:53:10.158Z,9.40
2023-03-29T13:56:19.714Z,9.16
2023-03-29T13:59:41.768Z,9.13
2023-03-29T14:02:49.546Z,9.28
2023-03-29T14:05:58.926Z,9.18
2023-03-29T14:09:06.392Z,9.17
2023-03-29T14:12:12.223Z,9.03
2023-03-29T14:15:36.399Z,8.76
2023-03-29T14:18:41.311Z,8.88
2023-03-29T14:21:44.370Z,8.63
2023-03-29T14:24:51.642Z,8.46
2023-03-29T14:27:53.638Z,8.41
2023-03-29T14:30:56.673Z,8.43
2023-03-29T14:34:04.614Z,8.64
2023-03-29T14:37:09.095Z,8.50
2023-03-29T14:40:21.212Z,8.47
2023-03-29T14:43:24.235Z,8.41
2023-03-29T14:46:27.399Z,8.43
2023-03-29T14:49:30.147Z,8.24
2023-03-29T14:52:33.505Z,8.50
2023-03-29T14:55:36.587Z,8.66
2023-03-29T14:58:40.183Z,8.80
2023-03-29T15:01:44.598Z,8.47
2023-03-29T15:04:55.692Z,8.42
2023-03-29T15:07:57.834Z,8.50
2023-03-29T15:11:00.169Z,8.17
2023-03-29T15:14:08.802Z,8.36
2023-03-29T15:17:50.921Z,8.42
2023-03-29T15:20:54.626Z,8.17
2023-03-29T15:23:58.550Z,8.19
2023-03-29T15:27:12.376Z,8.43
2023-03-29T15:30:17.578Z,8.27
2023-03-29T15:33:23.056Z,8.14
2023-03-29T15:36:25.049Z,8.22
2023-03-29T15:39:28.800Z,8.29
2023-03-29T15:42:31.525Z,8.15
2023-03-29T15:45:33.484Z,7.95
2023-03-29T15:48:35.363Z,7.90
2023-03-29T15:51:37.472Z,7.92
2023-03-29T15:54:39.458Z,7.71
2023-03-29T15:57:46.460Z,7.42
2023-03-29T16:00:53.859Z,7.22
2023-03-29T16:03:57.890Z,7.13
2023-03-29T16:07:01.340Z,6.91
2023-03-29T16:10:03.945Z,6.88
2023-03-29T16:13:06.465Z,6.79
2023-03-29T16:16:10.744Z,6.61
2023-03-29T16:19:13.042Z,6.65
2023-03-29T16:22:14.910Z,6.58
2023-03-29T16:25:19.297Z,6.67
2023-03-29T16:28:21.767Z,6.60
2023-03-29T16:31:25.882Z,6.40
2023-03-29T16:34:28.595Z,6.23
2023-03-29T16:37:30.446Z,6.21
2023-03-29T16:40:33.323Z,6.11
2023-03-29T16:43:38.576Z,5.97
2023-03-29T16:46:41.611Z,5.89
2023-03-29T16:49:45.316Z,5.83
2023-03-29T16:52:49.009Z,5.67
2023-03-29T16:55:51.005Z,5.28
2023-03-29T16:58:52.918Z,5.23
2023-03-29T17:01:54.937Z,4.97
2023-03-29T17:04:57.726Z,5.04
2023-03-29T17:07:59.655Z,5.07
2023-03-29T17:11:03.111Z,5.12
2023-03-29T17:14:05.133Z,5.06
2023-03-29T17:17:06.986Z,4.97
2023-03-29T17:20:12.360Z,4.94
2023-03-29T17:23:14.367Z,4.82
2023-03-29T17:26:16.227Z,4.66
2023-03-29T17:29:18.172Z,4.61
2023-03-29T17:32:20.497Z,4.66
2023-03-29T17:35:22.679Z,4.61
2023-03-29T17:38:26.759Z,4.69
2023-03-29T17:41:30.785Z,4.55
2023-03-29T17:44:34.780Z,4.59
2023-03-29T17:47:37.602Z,4.57
2023-03-29T17:50:39.863Z,4.48
2023-03-29T17:53:41.997Z,4.46
2023-03-29T17:56:43.977Z,4.47
2023-03-29T17:59:46.210Z,4.48
2023-03-29T18:02:48.425Z,4.46
2023-03-29T18:05:51.259Z,4.57
2023-03-29T18:08:53.530Z,4.49
2023-03-29T18:11:55.604Z,4.43
2023-03-29T18:14:57.800Z,4.45
2023-03-29T18:18:00.089Z,4.37
2023-03-29T18:21:02.348Z,4.36
2023-03-29T18:24:04.311Z,4.37
2023-03-29T18:27:06.649Z,4.33
2023-03-29T18:30:09.440Z,4.37
2023-03-29T18:33:11.864Z,4.37
2023-03-29T18:36:14.570Z,4.37
2023-03-29T18:39:16.911Z,4.25
2023-03-29T18:42:21.956Z,4.22
2023-03-29T18:45:24.093Z,4.13
2023-03-29T18:48:26.539Z,3.93
2023-03-29T18:51:29.345Z,4.01
2023-03-29T18:54:31.828Z,3.91
2023-03-29T18:57:34.200Z,3.87
2023-03-29T19:00:37.355Z,3.85
2023-03-29T19:03:40.103Z,3.93
2023-03-29T19:06:42.610Z,3.92
2023-03-29T19:09:45.316Z,3.68
2023-03-29T19:12:47.517Z,3.72
2023-03-29T19:15:51.833Z,3.76
2023-03-29T19:18:54.319Z,3.78
2023-03-29T19:21:58.336Z,3.76
2023-03-29T19:25:04.675Z,3.69
2023-03-29T19:28:06.997Z,3.67
2023-03-29T19:31:10.228Z,3.60
2023-03-29T19:34:13.507Z,3.48
2023-03-29T19:37:17.622Z,3.46
2023-03-29T19:40:20.154Z,3.35
2023-03-29T19:43:22.329Z,3.18
2023-03-29T19:46:24.685Z,3.02
2023-03-29T19:49:26.779Z,3.02
2023-03-29T19:52:30.487Z,3.06
2023-03-29T19:55:32.534Z,3.12
2023-03-29T19:58:35.004Z,3.08
2023-03-29T20:01:39.451Z,3.10
2023-03-29T20:04:41.651Z,3.09
2023-03-29T20:07:44.560Z,2.99
2023-03-29T20:10:46.435Z,2.97
2023-03-29T20:13:48.782Z,2.83
2023-03-29T20:16:51.107Z,2.79
2023-03-29T20:19:53.988Z,2.62
2023-03-29T20:23:04.640Z,2.57
2023-03-29T20:26:08.425Z,2.55
2023-03-29T20:29:10.347Z,2.57
2023-03-29T20:32:12.514Z,2.58
2023-03-29T20:35:14.567Z,2.33
2023-03-29T20:38:16.480Z,2.46
2023-03-29T20:41:21.265Z,2.40
2023-03-29T20:44:28.350Z,2.37
2023-03-29T20:47:30.341Z,2.42
2023-03-29T20:50:32.389Z,2.25
2023-03-29T20:53:34.293Z,2.16
2023-03-29T20:56:39.831Z,2.15
2023-03-29T20:59:45.766Z,2.00
2023-03-29T21:02:47.804Z,2.03
2023-03-29T21:05:54.240Z,1.98
2023-03-29T21:08:57.470Z,1.92
2023-03-29T21:11:59.832Z,1.96
2023-03-29T21:15:02.406Z,2.05
2023-03-29T21:18:04.658Z,2.12
2023-03-29T21:21:08.060Z,2.02
2023-03-29T21:24:13.136Z,2.09
2023-03-29T21:27:15.049Z,2.12
2023-03-29T21:30:17.123Z,1.99
2023-03-29T21:33:19.078Z,1.88
2023-03-29T21:36:20.992Z,1.82
2023-03-29T21:39:26.067Z,1.58
2023-03-29T21:42:28.382Z,1.63
2023-03-29T21:45:30.606Z,1.49
2023-03-29T21:48:32.862Z,1.52
2023-03-29T21:51:35.374Z,1.60
2023-03-29T21:54:37.236Z,1.43
2023-03-29T21:57:39.077Z,1.45
2023-03-29T22:00:41.632Z,1.39
2023-03-29T22:03:44.322Z,1.26
2023-03-29T22:06:46.369Z,1.32
2023-03-29T22:09:48.440Z,1.28
2023-03-29T22:12:51.421Z,1.21
2023-03-29T22:16:03.620Z,1.31
2023-03-29T22:19:06.419Z,1.24
2023-03-29T22:22:13.372Z,1.27
2023-03-29T22:25:17.572Z,1.13
2023-03-29T22:28:19.531Z,1.10
2023-03-29T22:31:23.529Z,1.05
2023-03-29T22:34:25.695Z,0.99
2023-03-29T22:37:27.519Z,1.00
2023-03-29T22:40:33.128Z,1.06
2023-03-29T22:43:36.486Z,1.09
2023-03-29T22:46:38.581Z,1.09
2023-03-29T22:49:40.586Z,1.08
2023-03-29T22:52:42.475Z,1.02
2023-03-29T22:55:45.862Z,0.97
2023-03-29T22:58:47.964Z,0.97
2023-03-29T23:01:50.075Z,1.03
2023-03-29T23:04:52.191Z,1.04
2023-03-29T23:07:55.759Z,1.00
2023-03-29T23:10:58.384Z,0.92
2023-03-29T23:14:03.991Z,0.87
2023-03-29T23:17:06.114Z,0.89
2023-03-29T23:20:11.047Z,0.85
2023-03-29T23:23:13.212Z,0.75
2023-03-29T23:26:15.892Z,0.74
2023-03-29T23:29:17.930Z,0.72
2023-03-29T23:32:20.528Z,0.87
2023-03-29T23:35:22.461Z,0.89
2023-03-29T23:38:24.658Z,0.85
2023-03-29T23:41:30.744Z,0.78
2023-03-29T23:44:32.740Z,0.63
2023-03-29T23:47:35.479Z,0.55
2023-03-29T23:50:37.487Z,0.54
2023-03-29T23:53:39.639Z,0.43
2023-03-29T23:56:41.542Z,0.57
2023-03-29T23:59:43.501Z,0.63
